Time;durP1;ratioP1;P1;durP2;ratioP2;P2;SDS_P1;SDS_P2;PMS_P1;PMS_P2;Temp;Humidity;BMP_temperature;BMP_pressure;BME280_temperature;BME280_humidity;BME280_pressure;Samples;Min_cycle;Max_cycle;Signal;HPM_P1;HPM_P2
2021/04/28 00:00:31;;;;;;;7.65;2.88;;;7.20;68.10;;;;;;5135504;27;20038;-74
2021/04/28 00:02:58;;;;;;;7.10;2.65;;;7.40;67.20;;;;;;5135551;27;20344;-74
2021/04/28 00:05:24;;;;;;;4.93;2.50;;;7.20;67.20;;;;;;5134568;27;20035;-74
2021/04/28 00:07:52;;;;;;;5.97;2.72;;;7.20;66.90;;;;;;5134850;27;20039;-74
2021/04/28 00:10:20;;;;;;;9.02;3.47;;;7.10;66.90;;;;;;5133904;27;20035;-74
2021/04/28 00:12:46;;;;;;;8.20;3.92;;;7.00;67.30;;;;;;5135009;27;20117;-74
2021/04/28 00:15:18;;;;;;;5.78;4.13;;;7.10;66.90;;;;;;5133300;27;20035;-74
2021/04/28 00:17:45;;;;;;;5.68;3.58;;;7.00;66.60;;;;;;5134868;27;20471;-74
2021/04/28 00:20:13;;;;;;;3.97;3.20;;;7.00;66.30;;;;;;5133974;27;20491;-74
2021/04/28 00:22:40;;;;;;;4.40;2.88;;;7.00;66.30;;;;;;5134666;27;20038;-74
2021/04/28 00:25:09;;;;;;;6.57;3.50;;;7.00;65.80;;;;;;5134350;27;20043;-74
2021/04/28 00:27:35;;;;;;;8.43;3.90;;;7.00;65.40;;;;;;5135028;27;20479;-74
2021/04/28 00:30:03;;;;;;;4.85;2.80;;;7.00;65.20;;;;;;5134854;27;20049;-74
2021/04/28 00:32:28;;;;;;;4.07;2.80;;;6.90;65.10;;;;;;5134714;27;20088;-74
2021/04/28 00:34:56;;;;;;;4.93;2.90;;;6.90;64.90;;;;;;5134262;27;20039;-74
2021/04/28 00:37:21;;;;;;;7.20;2.67;;;6.80;64.90;;;;;;5134787;27;20035;-74
2021/04/28 00:39:47;;;;;;;4.07;2.95;;;6.80;65.60;;;;;;5134498;27;20031;-74
2021/04/28 00:42:15;;;;;;;6.70;2.67;;;6.90;64.20;;;;;;5134944;27;20084;-74
2021/04/28 00:44:41;;;;;;;4.47;2.38;;;6.80;64.00;;;;;;5134191;27;20042;-74
2021/04/28 00:47:07;;;;;;;4.97;2.30;;;6.70;64.30;;;;;;5134933;27;20061;-74
2021/04/28 00:49:33;;;;;;;3.17;2.30;;;6.70;63.70;;;;;;5134316;27;20042;-74
2021/04/28 00:52:01;;;;;;;5.15;2.05;;;6.60;63.80;;;;;;5134129;27;20043;-74
2021/04/28 00:54:28;;;;;;;3.55;2.20;;;6.60;63.70;;;;;;5134024;27;20039;-74
2021/04/28 00:56:56;;;;;;;5.93;2.33;;;6.60;63.20;;;;;;5134206;27;20376;-74
2021/04/28 00:59:22;;;;;;;5.10;2.08;;;6.60;63.20;;;;;;5134167;27;20035;-74
2021/04/28 01:01:48;;;;;;;3.10;1.90;;;6.50;63.60;;;;;;5134092;27;20039;-74
2021/04/28 01:04:15;;;;;;;3.50;1.92;;;6.50;63.10;;;;;;5134121;27;20042;-74
2021/04/28 01:06:44;;;;;;;7.47;2.05;;;6.50;63.20;;;;;;5133847;27;20113;-74
2021/04/28 01:09:14;;;;;;;5.85;2.05;;;6.40;63.60;;;;;;5134087;27;20398;-74
2021/04/28 01:11:40;;;;;;;6.03;2.10;;;6.30;64.00;;;;;;5133973;27;20379;-74
2021/04/28 01:14:07;;;;;;;3.50;2.40;;;6.30;64.00;;;;;;5134284;27;20043;-74
2021/04/28 01:16:34;;;;;;;2.55;1.70;;;6.40;63.60;;;;;;5133787;27;20035;-74
2021/04/28 01:19:01;;;;;;;2.95;1.88;;;6.30;63.90;;;;;;5134275;27;20038;-74
2021/04/28 01:21:27;;;;;;;5.38;2.35;;;6.30;64.10;;;;;;5134413;27;20046;-74
2021/04/28 01:23:53;;;;;;;2.72;1.67;;;6.20;64.20;;;;;;5134414;27;20039;-74
2021/04/28 01:26:23;;;;;;;4.00;2.20;;;6.20;64.20;;;;;;5133799;27;20406;-74
2021/04/28 01:28:49;;;;;;;2.97;1.70;;;6.20;64.20;;;;;;5134606;27;20031;-74
2021/04/28 01:31:17;;;;;;;4.97;1.98;;;6.20;64.00;;;;;;5133761;27;20557;-74
2021/04/28 01:33:48;;;;;;;3.22;1.98;;;6.20;64.10;;;;;;5133929;27;20039;-74
2021/04/28 01:36:22;;;;;;;4.40;2.45;;;6.20;64.00;;;;;;5134012;27;20045;-74
2021/04/28 01:38:54;;;;;;;3.92;1.98;;;6.10;64.00;;;;;;5134640;27;20039;-74
2021/04/28 01:41:21;;;;;;;3.28;2.25;;;6.10;64.10;;;;;;5134749;27;20089;-74
2021/04/28 01:43:47;;;;;;;3.58;2.20;;;6.20;64.30;;;;;;5137338;27;20114;-74
2021/04/28 01:46:14;;;;;;;2.63;1.80;;;6.10;64.50;;;;;;5137463;27;20039;-74
2021/04/28 01:48:42;;;;;;;4.97;1.95;;;6.10;64.30;;;;;;5138286;27;20058;-74
2021/04/28 01:51:09;;;;;;;3.13;2.10;;;6.20;64.30;;;;;;5137453;27;20597;-74
2021/04/28 01:53:36;;;;;;;3.85;2.28;;;6.10;64.40;;;;;;5137710;27;20054;-74
2021/04/28 01:56:03;;;;;;;4.43;2.08;;;6.00;64.90;;;;;;5137285;27;20046;-74
2021/04/28 01:58:29;;;;;;;4.28;2.42;;;6.00;64.80;;;;;;5136773;27;20467;-74
2021/04/28 02:00:55;;;;;;;4.30;2.17;;;6.00;65.40;;;;;;5137374;27;20073;-74
2021/04/28 02:03:26;;;;;;;3.70;2.33;;;5.90;65.10;;;;;;5137362;27;20396;-74
2021/04/28 02:05:52;;;;;;;3.65;2.15;;;6.00;65.60;;;;;;5137132;27;20068;-74
2021/04/28 02:08:19;;;;;;;6.05;2.25;;;5.90;65.70;;;;;;5137285;27;20115;-74
2021/04/28 02:10:46;;;;;;;3.90;2.47;;;6.00;65.70;;;;;;5137455;27;20057;-74
2021/04/28 02:13:14;;;;;;;4.88;2.40;;;6.00;66.00;;;;;;5137526;27;20035;-74
2021/04/28 02:15:40;;;;;;;5.35;2.92;;;5.90;66.40;;;;;;5137149;27;20126;-74
2021/04/28 02:18:08;;;;;;;5.07;2.70;;;6.00;66.70;;;;;;5137557;27;20390;-74
2021/04/28 02:20:35;;;;;;;5.00;2.40;;;6.00;67.00;;;;;;5137711;27;20422;-74
2021/04/28 02:23:03;;;;;;;6.47;2.63;;;6.00;67.10;;;;;;5137302;27;20452;-74
2021/04/28 02:25:29;;;;;;;4.13;3.13;;;6.00;66.90;;;;;;5136669;27;20035;-74
2021/04/28 02:27:55;;;;;;;6.10;2.60;;;6.10;66.90;;;;;;5136807;27;20043;-74
2021/04/28 02:30:24;;;;;;;3.03;2.17;;;6.00;67.40;;;;;;5137238;27;20050;-74
2021/04/28 02:32:51;;;;;;;5.90;2.45;;;5.90;67.70;;;;;;5136820;27;20035;-74
2021/04/28 02:35:19;;;;;;;5.22;2.53;;;6.00;67.70;;;;;;5136367;27;20039;-74
2021/04/28 02:37:47;;;;;;;3.70;2.63;;;6.00;67.70;;;;;;5136714;27;20035;-74
2021/04/28 02:40:15;;;;;;;5.53;2.88;;;5.90;68.40;;;;;;5136975;27;20039;-74
2021/04/28 02:42:44;;;;;;;3.85;2.72;;;5.80;68.80;;;;;;5136711;27;20042;-74
2021/04/28 02:45:14;;;;;;;6.32;3.03;;;5.80;69.20;;;;;;5136220;27;20541;-74
2021/04/28 02:47:40;;;;;;;3.05;2.40;;;5.80;69.60;;;;;;5136670;27;20038;-74
2021/04/28 02:50:08;;;;;;;4.57;3.03;;;5.80;70.10;;;;;;5136342;27;20136;-74
2021/04/28 02:52:34;;;;;;;5.20;2.83;;;5.70;70.30;;;;;;5136652;27;20038;-74
2021/04/28 02:55:01;;;;;;;6.07;3.40;;;5.80;70.30;;;;;;5136053;27;20486;-74
2021/04/28 02:57:27;;;;;;;7.70;3.20;;;5.80;70.40;;;;;;5136782;27;20035;-74
2021/04/28 02:59:53;;;;;;;3.60;2.78;;;5.80;70.40;;;;;;5136359;27;20042;-71
2021/04/28 03:02:20;;;;;;;3.53;2.78;;;5.80;70.60;;;;;;5136542;27;20501;-71
2021/04/28 03:04:46;;;;;;;4.78;3.15;;;5.70;71.00;;;;;;5136117;27;20115;-71
2021/04/28 03:07:14;;;;;;;7.30;2.80;;;5.70;70.60;;;;;;5136049;27;20039;-71
2021/04/28 03:09:41;;;;;;;6.72;3.90;;;5.80;70.40;;;;;;5136085;27;20085;-71
2021/04/28 03:12:08;;;;;;;4.63;3.08;;;5.80;70.30;;;;;;5135923;27;20122;-71
2021/04/28 03:14:34;;;;;;;4.50;2.78;;;5.80;70.50;;;;;;5134584;27;20039;-71
2021/04/28 03:17:00;;;;;;;5.03;2.88;;;5.60;70.90;;;;;;5135936;27;20042;-71
2021/04/28 03:19:26;;;;;;;5.00;3.45;;;5.60;70.90;;;;;;5136114;27;20535;-71
2021/04/28 03:21:52;;;;;;;3.95;2.67;;;5.70;70.70;;;;;;5136377;27;20050;-71
2021/04/28 03:24:20;;;;;;;5.35;3.38;;;5.70;70.70;;;;;;5136085;27;20035;-71
2021/04/28 03:26:46;;;;;;;7.75;2.83;;;5.60;70.90;;;;;;5135425;27;20118;-71
2021/04/28 03:29:12;;;;;;;4.53;3.17;;;5.70;70.60;;;;;;5136328;27;20043;-71
2021/04/28 03:31:38;;;;;;;4.07;2.75;;;5.60;70.60;;;;;;5135546;27;20464;-71
2021/04/28 03:34:04;;;;;;;5.68;2.88;;;5.70;70.60;;;;;;5135560;27;20092;-71
2021/04/28 03:36:29;;;;;;;7.82;3.22;;;5.60;70.70;;;;;;5135170;27;20043;-71
2021/04/28 03:38:55;;;;;;;4.95;3.42;;;5.60;70.80;;;;;;5135436;27;20035;-71
2021/04/28 03:41:22;;;;;;;7.45;3.35;;;5.60;70.50;;;;;;5135973;27;20043;-71
2021/04/28 03:43:48;;;;;;;5.10;3.25;;;5.60;70.60;;;;;;5135963;27;20041;-71
2021/04/28 03:46:15;;;;;;;7.80;3.58;;;5.60;70.70;;;;;;5134974;27;20126;-71
2021/04/28 03:48:40;;;;;;;6.40;3.13;;;5.60;70.80;;;;;;5135834;27;20059;-71
2021/04/28 03:51:06;;;;;;;5.40;3.03;;;5.50;71.10;;;;;;5135453;27;20070;-71
2021/04/28 03:53:32;;;;;;;5.20;3.03;;;5.40;70.90;;;;;;5135140;27;20062;-71
2021/04/28 03:55:58;;;;;;;5.03;2.95;;;5.60;70.80;;;;;;5134985;27;20035;-71
2021/04/28 03:58:23;;;;;;;3.83;2.92;;;5.70;70.40;;;;;;5135780;27;20114;-71
2021/04/28 04:00:49;;;;;;;5.85;3.50;;;5.50;70.70;;;;;;5135037;27;20039;-71
2021/04/28 04:03:15;;;;;;;5.25;3.22;;;5.40;71.30;;;;;;5133893;27;20062;-71
2021/04/28 04:05:42;;;;;;;3.80;2.90;;;5.40;71.10;;;;;;5134454;27;20035;-71
2021/04/28 04:08:07;;;;;;;6.60;3.15;;;5.40;71.40;;;;;;5134774;27;20038;-71
2021/04/28 04:10:33;;;;;;;4.88;3.25;;;5.40;71.40;;;;;;5135402;27;20092;-71
2021/04/28 04:12:59;;;;;;;6.93;2.90;;;5.40;71.20;;;;;;5135427;27;20061;-71
2021/04/28 04:15:24;;;;;;;5.72;2.83;;;5.30;71.20;;;;;;5134396;27;20122;-71
2021/04/28 04:17:50;;;;;;;5.32;3.00;;;5.40;70.90;;;;;;5134669;27;20087;-71
2021/04/28 04:20:16;;;;;;;7.00;3.28;;;5.50;70.40;;;;;;5134708;27;20084;-71
2021/04/28 04:22:41;;;;;;;4.53;3.00;;;5.40;70.80;;;;;;5134808;27;20108;-71
2021/04/28 04:25:08;;;;;;;4.90;3.15;;;5.30;71.10;;;;;;5134287;27;20046;-71
2021/04/28 04:27:34;;;;;;;4.75;3.40;;;5.30;71.30;;;;;;5134546;27;20055;-71
2021/04/28 04:30:05;;;;;;;5.25;3.22;;;5.40;71.10;;;;;;5135010;27;20114;-71
2021/04/28 04:32:32;;;;;;;6.13;3.03;;;5.50;70.60;;;;;;5134723;27;20031;-71
2021/04/28 04:34:57;;;;;;;4.32;2.88;;;5.50;70.80;;;;;;5134335;27;20036;-74
2021/04/28 04:37:23;;;;;;;6.35;3.47;;;5.50;70.70;;;;;;5134481;27;20042;-74
2021/04/28 04:39:49;;;;;;;6.50;3.05;;;5.50;70.70;;;;;;5134360;27;20039;-73
2021/04/28 04:42:14;;;;;;;7.10;3.17;;;5.60;70.20;;;;;;5135025;27;20043;-74
2021/04/28 04:44:40;;;;;;;7.50;3.58;;;5.60;70.00;;;;;;5134264;27;20031;-74
2021/04/28 04:47:06;;;;;;;5.63;2.70;;;5.60;69.90;;;;;;5134243;27;20084;-74
2021/04/28 04:49:32;;;;;;;4.63;2.92;;;5.60;70.00;;;;;;5134277;27;20134;-74
2021/04/28 04:51:58;;;;;;;5.53;3.70;;;5.70;69.90;;;;;;5134585;27;20031;-74
2021/04/28 04:54:23;;;;;;;7.20;3.22;;;5.90;69.10;;;;;;5133886;27;20114;-74
2021/04/28 04:56:49;;;;;;;5.75;3.05;;;6.00;69.00;;;;;;5134376;27;20074;-74
2021/04/28 04:59:15;;;;;;;6.00;3.08;;;6.00;68.80;;;;;;5134264;27;20073;-74
2021/04/28 05:01:40;;;;;;;5.03;3.50;;;6.10;68.60;;;;;;5134044;27;20035;-73
2021/04/28 05:04:06;;;;;;;5.28;3.60;;;6.30;67.90;;;;;;5134155;27;20035;-74
2021/04/28 05:06:33;;;;;;;6.30;3.92;;;6.30;67.60;;;;;;5133038;27;20035;-74
2021/04/28 05:08:58;;;;;;;5.32;3.47;;;6.50;67.50;;;;;;5134611;27;20505;-74
2021/04/28 05:11:24;;;;;;;7.78;3.33;;;6.40;67.00;;;;;;5134669;27;20042;-74
2021/04/28 05:13:50;;;;;;;4.90;3.20;;;6.60;66.60;;;;;;5132810;28;20035;-73
2021/04/28 05:16:15;;;;;;;5.28;3.55;;;6.80;66.00;;;;;;5133611;27;20483;-74
2021/04/28 05:18:41;;;;;;;5.22;3.33;;;6.80;66.00;;;;;;5137156;27;20543;-74
2021/04/28 05:21:07;;;;;;;5.50;3.38;;;6.80;65.70;;;;;;5138536;27;20043;-74
2021/04/28 05:23:32;;;;;;;7.45;3.38;;;7.00;65.40;;;;;;5138235;27;20035;-74
2021/04/28 05:25:58;;;;;;;8.20;3.55;;;7.00;65.20;;;;;;5136644;27;20088;-73
2021/04/28 05:28:24;;;;;;;5.97;3.47;;;7.10;64.80;;;;;;5137681;27;20046;-74
2021/04/28 05:30:50;;;;;;;4.60;3.10;;;7.10;64.60;;;;;;5137998;27;20046;-74
2021/04/28 05:33:16;;;;;;;5.38;3.17;;;7.00;65.20;;;;;;5138253;27;20039;-74
2021/04/28 05:35:41;;;;;;;5.10;3.53;;;7.20;64.70;;;;;;5137923;27;20104;-74
2021/04/28 05:38:07;;;;;;;9.40;3.45;;;7.20;64.20;;;;;;5137638;27;20046;-74
2021/04/28 05:40:33;;;;;;;4.07;3.10;;;7.30;63.80;;;;;;5137982;27;20039;-74
2021/04/28 05:42:59;;;;;;;5.72;3.45;;;7.60;63.40;;;;;;5138187;27;20046;-74
2021/04/28 05:45:25;;;;;;;7.00;3.08;;;7.70;63.40;;;;;;5137717;27;20042;-74
2021/04/28 05:47:50;;;;;;;4.70;2.78;;;7.90;62.90;;;;;;5137979;27;20049;-74
2021/04/28 05:50:18;;;;;;;9.40;3.40;;;8.00;62.30;;;;;;5137617;27;20046;-74
2021/04/28 05:52:44;;;;;;;7.38;3.30;;;8.30;61.80;;;;;;5137515;27;20039;-74
2021/04/28 05:55:11;;;;;;;8.00;3.75;;;8.50;61.40;;;;;;5137551;27;20035;-74
2021/04/28 05:57:38;;;;;;;7.10;3.35;;;8.60;61.10;;;;;;5137239;27;20060;-74
2021/04/28 06:00:12;;;;;;;5.47;3.75;;;8.70;60.70;;;;;;5137538;27;20035;-74
2021/04/28 06:02:38;;;;;;;10.15;3.35;;;8.70;60.40;;;;;;5137666;27;20031;-74
2021/04/28 06:05:05;;;;;;;5.13;3.55;;;8.80;59.90;;;;;;5137192;27;20574;-74
2021/04/28 06:07:30;;;;;;;8.07;3.75;;;8.80;59.50;;;;;;5137068;27;20376;-74
2021/04/28 06:09:56;;;;;;;5.78;3.53;;;9.10;59.00;;;;;;5137115;27;20031;-74
2021/04/28 06:12:22;;;;;;;5.43;3.33;;;9.10;58.90;;;;;;5137316;27;20038;-74
2021/04/28 06:14:48;;;;;;;8.50;3.72;;;9.30;58.50;;;;;;5136773;27;20391;-74
2021/04/28 06:17:13;;;;;;;5.75;3.17;;;9.40;58.60;;;;;;5137289;27;20073;-74
2021/04/28 06:19:39;;;;;;;6.45;3.20;;;9.50;57.90;;;;;;5136914;27;20039;-74
2021/04/28 06:22:05;;;;;;;6.65;3.63;;;9.70;57.60;;;;;;5137003;27;20039;-74
2021/04/28 06:24:31;;;;;;;5.07;3.58;;;9.70;57.20;;;;;;5136748;27;20064;-74
2021/04/28 06:26:57;;;;;;;7.70;4.07;;;9.90;57.30;;;;;;5136769;27;20071;-74
2021/04/28 06:29:22;;;;;;;6.60;3.53;;;10.00;56.70;;;;;;5136353;27;20113;-74
2021/04/28 06:31:49;;;;;;;4.75;3.55;;;10.10;56.10;;;;;;5136544;27;20491;-74
2021/04/28 06:34:14;;;;;;;6.90;3.50;;;10.00;56.00;;;;;;5136562;27;20041;-74
2021/04/28 06:36:40;;;;;;;5.53;3.17;;;9.80;56.40;;;;;;5136631;27;20050;-74
2021/04/28 06:39:06;;;;;;;9.00;3.80;;;10.00;56.50;;;;;;5135600;27;20046;-74
2021/04/28 06:41:32;;;;;;;5.65;4.03;;;10.20;56.60;;;;;;5136619;27;20039;-73
2021/04/28 06:43:58;;;;;;;5.90;3.65;;;10.30;55.60;;;;;;5135930;27;20039;-74
2021/04/28 06:46:23;;;;;;;6.07;3.40;;;10.60;55.80;;;;;;5136404;27;20038;-74
2021/04/28 06:48:49;;;;;;;5.13;3.50;;;10.50;54.60;;;;;;5137004;27;20088;-74
2021/04/28 06:51:15;;;;;;;6.65;3.50;;;10.50;54.20;;;;;;5136442;27;20039;-74
2021/04/28 06:53:41;;;;;;;6.00;3.78;;;10.50;55.60;;;;;;5137117;27;20069;-74
2021/04/28 06:56:06;;;;;;;8.60;3.83;;;10.70;55.70;;;;;;5135968;27;20084;-74
2021/04/28 06:58:33;;;;;;;7.38;3.80;;;10.90;53.40;;;;;;5137030;27;20442;-74
2021/04/28 07:00:59;;;;;;;8.85;4.30;;;10.90;53.80;;;;;;5136733;27;20035;-74
2021/04/28 07:03:25;;;;;;;9.52;3.53;;;11.10;54.20;;;;;;5135182;27;20042;-74
2021/04/28 07:05:51;;;;;;;4.95;3.70;;;11.10;54.20;;;;;;5136004;27;20035;-74
2021/04/28 07:08:17;;;;;;;7.60;3.50;;;11.40;54.20;;;;;;5136114;27;20039;-74
2021/04/28 07:10:42;;;;;;;6.75;3.53;;;11.50;53.80;;;;;;5136171;27;20070;-74
2021/04/28 07:13:08;;;;;;;6.85;3.90;;;11.70;52.70;;;;;;5136111;27;20111;-74
2021/04/28 07:15:34;;;;;;;5.15;3.58;;;11.80;52.10;;;;;;5136119;27;20039;-73
2021/04/28 07:18:00;;;;;;;6.63;3.88;;;11.90;51.90;;;;;;5136079;27;20100;-73
2021/04/28 07:20:26;;;;;;;8.02;4.30;;;11.70;51.60;;;;;;5136566;27;20038;-72
2021/04/28 07:22:52;;;;;;;11.20;5.70;;;11.70;52.40;;;;;;5135927;27;20117;-74
2021/04/28 07:25:18;;;;;;;7.65;4.63;;;12.00;51.80;;;;;;5135531;27;20551;-73
2021/04/28 07:27:44;;;;;;;6.60;4.07;;;12.00;52.10;;;;;;5136014;27;20109;-73
2021/04/28 07:30:12;;;;;;;6.28;4.03;;;12.30;50.90;;;;;;5135954;27;20475;-73
2021/04/28 07:32:39;;;;;;;5.78;3.63;;;12.20;50.00;;;;;;5136048;27;20039;-71
2021/04/28 07:35:06;;;;;;;7.20;3.67;;;12.40;50.10;;;;;;5135350;27;20069;-71
2021/04/28 07:37:32;;;;;;;6.32;4.55;;;12.40;49.90;;;;;;5135703;27;20074;-71
2021/04/28 07:39:57;;;;;;;5.53;3.78;;;12.60;49.70;;;;;;5134694;27;20039;-73
2021/04/28 07:42:24;;;;;;;7.53;4.07;;;12.60;50.40;;;;;;5135590;27;20088;-73
2021/04/28 07:44:49;;;;;;;8.00;4.00;;;12.60;50.10;;;;;;5135067;27;20458;-71
2021/04/28 07:47:15;;;;;;;8.40;4.30;;;12.70;50.00;;;;;;5135272;27;20073;-73
2021/04/28 07:49:41;;;;;;;6.38;3.47;;;12.80;49.30;;;;;;5135452;27;20096;-74
2021/04/28 07:52:06;;;;;;;5.32;3.53;;;12.80;50.30;;;;;;5135714;27;20533;-71
2021/04/28 07:54:32;;;;;;;5.63;3.97;;;13.10;49.60;;;;;;5135363;27;20091;-74
2021/04/28 07:57:02;;;;;;;9.73;3.92;;;13.10;49.80;;;;;;5135395;27;20039;-73
2021/04/28 07:59:28;;;;;;;6.55;4.07;;;13.30;48.80;;;;;;5135697;27;20035;-74
2021/04/28 08:01:53;;;;;;;7.13;4.65;;;13.40;48.80;;;;;;5135580;27;20046;-74
2021/04/28 08:04:20;;;;;;;10.02;4.13;;;13.20;48.80;;;;;;5135628;27;20095;-74
2021/04/28 08:06:47;;;;;;;7.80;4.35;;;13.50;48.70;;;;;;5133892;27;20066;-74
2021/04/28 08:09:13;;;;;;;6.28;4.47;;;13.40;48.40;;;;;;5134986;27;20395;-71
2021/04/28 08:11:39;;;;;;;7.35;4.30;;;13.80;48.10;;;;;;5134730;27;20031;-71
2021/04/28 08:14:05;;;;;;;8.27;4.47;;;13.90;46.80;;;;;;5134850;27;20456;-72
2021/04/28 08:16:35;;;;;;;5.40;3.42;;;13.80;46.20;;;;;;5134552;27;20035;-71
2021/04/28 08:19:01;;;;;;;8.48;4.68;;;14.00;47.80;;;;;;5135400;27;20531;-71
2021/04/28 08:21:27;;;;;;;5.70;4.25;;;14.20;46.60;;;;;;5134832;27;20035;-71
2021/04/28 08:23:52;;;;;;;7.72;5.10;;;14.50;45.60;;;;;;5134874;27;20035;-72
2021/04/28 08:26:18;;;;;;;7.78;4.60;;;14.30;44.30;;;;;;5134205;27;20031;-71
2021/04/28 08:28:46;;;;;;;8.07;5.13;;;14.10;44.70;;;;;;5135169;27;20046;-71
2021/04/28 08:31:15;;;;;;;5.90;4.10;;;14.00;44.30;;;;;;5134410;27;20035;-72
2021/04/28 08:33:42;;;;;;;9.32;5.45;;;14.40;45.90;;;;;;5134446;27;20031;-71
2021/04/28 08:36:09;;;;;;;7.93;4.68;;;14.30;46.20;;;;;;5134072;27;20038;-71
2021/04/28 08:38:37;;;;;;;12.57;4.57;;;14.20;45.40;;;;;;5134439;27;20110;-70
2021/04/28 08:41:08;;;;;;;8.27;4.82;;;14.30;44.70;;;;;;5134667;27;20118;-71
2021/04/28 08:43:33;;;;;;;8.15;4.63;;;14.40;44.00;;;;;;5135030;27;20489;-71
2021/04/28 08:46:01;;;;;;;7.78;5.15;;;14.40;43.00;;;;;;5134086;27;20035;-73
2021/04/28 08:48:27;;;;;;;7.63;4.68;;;14.60;44.10;;;;;;5134249;27;20045;-71
2021/04/28 08:50:53;;;;;;;8.30;5.03;;;14.70;44.00;;;;;;5134513;27;20043;-71
2021/04/28 08:53:19;;;;;;;8.90;5.25;;;14.60;43.60;;;;;;5134631;27;20543;-71
2021/04/28 08:55:46;;;;;;;9.30;5.22;;;14.80;43.30;;;;;;5134028;27;20092;-71
2021/04/28 08:58:13;;;;;;;7.95;4.40;;;14.80;44.20;;;;;;5133607;28;20404;-71
2021/04/28 09:00:39;;;;;;;8.50;4.88;;;14.90;43.40;;;;;;5134528;27;20046;-71
2021/04/28 09:03:05;;;;;;;8.80;5.07;;;15.20;45.00;;;;;;5134546;27;20035;-71
2021/04/28 09:05:33;;;;;;;8.57;5.20;;;15.30;43.60;;;;;;5134382;27;20038;-71
2021/04/28 09:07:59;;;;;;;9.25;4.90;;;15.10;42.60;;;;;;5134558;27;20494;-70
2021/04/28 09:10:29;;;;;;;10.10;4.95;;;15.00;42.50;;;;;;5134384;27;20066;-71
2021/04/28 09:13:05;;;;;;;9.38;5.72;;;14.80;44.60;;;;;;5134809;27;20546;-71
2021/04/28 09:15:35;;;;;;;9.38;5.47;;;15.00;44.60;;;;;;5134133;27;20042;-72
2021/04/28 09:18:03;;;;;;;10.27;5.65;;;15.20;43.40;;;;;;5134085;27;20036;-71
2021/04/28 09:20:34;;;;;;;11.15;4.80;;;15.00;42.40;;;;;;5134053;27;20398;-72
2021/04/28 09:23:29;;;;;;;12.65;5.15;;;15.10;42.50;;;;;;5134690;27;20042;-72
2021/04/28 09:25:56;;;;;;;7.78;5.50;;;15.00;41.80;;;;;;5133549;27;20039;-72
2021/04/28 09:28:34;;;;;;;7.70;5.18;;;15.00;41.40;;;;;;5132982;28;20039;-72
2021/04/28 09:31:05;;;;;;;8.27;5.10;;;15.00;44.10;;;;;;5133989;27;20039;-72
2021/04/28 09:33:40;;;;;;;6.85;5.18;;;14.80;41.70;;;;;;5134466;27;20046;-73
2021/04/28 09:36:07;;;;;;;13.50;5.55;;;14.80;42.50;;;;;;5133622;27;20521;-73
2021/04/28 09:38:56;;;;;;;7.60;4.80;;;14.70;42.30;;;;;;5133853;27;20045;-73
2021/04/28 09:41:42;;;;;;;8.32;5.93;;;14.90;41.20;;;;;;5127477;27;20082;-73
2021/04/28 09:44:19;;;;;;;10.88;5.60;;;14.70;43.20;;;;;;5134368;27;20110;-73
2021/04/28 09:47:11;;;;;;;10.13;5.72;;;14.60;42.30;;;;;;5133765;27;20182;-74
2021/04/28 09:49:56;;;;;;;6.80;5.50;;;14.80;41.00;;;;;;5134142;27;20035;-73
2021/04/28 09:52:41;;;;;;;7.95;5.75;;;14.80;39.90;;;;;;5133949;27;20066;-72
2021/04/28 09:55:11;;;;;;;8.45;5.65;;;14.80;41.00;;;;;;5133504;27;20371;-73
2021/04/28 09:57:40;;;;;;;9.02;5.82;;;14.80;40.20;;;;;;5133499;27;20032;-73
2021/04/28 10:00:17;;;;;;;7.05;5.60;;;14.80;39.70;;;;;;5133607;27;20046;-73
2021/04/28 10:02:49;;;;;;;12.38;6.43;;;15.00;41.80;;;;;;5133663;27;20035;-73
2021/04/28 10:05:22;;;;;;;8.65;6.25;;;14.90;40.50;;;;;;5137453;27;20158;-74
2021/04/28 10:07:48;;;;;;;6.65;5.68;;;15.00;39.80;;;;;;5137172;27;20035;-73
2021/04/28 10:10:16;;;;;;;7.75;6.00;;;15.10;40.80;;;;;;5137477;27;20046;-73
2021/04/28 10:12:42;;;;;;;6.97;5.55;;;15.10;40.70;;;;;;5137228;27;20063;-73
2021/04/28 10:15:08;;;;;;;9.20;5.28;;;15.10;40.70;;;;;;5136905;27;20059;-73
2021/04/28 10:17:35;;;;;;;6.20;5.53;;;15.00;40.50;;;;;;5137089;27;20035;-73
2021/04/28 10:20:07;;;;;;;8.77;6.25;;;15.10;39.80;;;;;;5137196;27;20065;-73
2021/04/28 10:22:33;;;;;;;10.50;6.40;;;15.00;39.60;;;;;;5137995;27;20043;-73
2021/04/28 10:25:03;;;;;;;10.02;5.82;;;15.00;40.40;;;;;;5136874;27;20087;-74
2021/04/28 10:27:29;;;;;;;12.05;5.97;;;15.20;41.20;;;;;;5137122;27;20042;-73
2021/04/28 10:29:55;;;;;;;7.07;5.68;;;15.10;39.40;;;;;;5137017;27;20035;-73
2021/04/28 10:32:23;;;;;;;10.15;6.18;;;15.10;39.30;;;;;;5137393;27;20356;-73
2021/04/28 10:35:02;;;;;;;10.50;6.10;;;15.10;39.70;;;;;;5135576;27;20035;-73
2021/04/28 10:37:30;;;;;;;9.18;6.40;;;15.10;41.50;;;;;;5137312;27;20043;-72
2021/04/28 10:39:56;;;;;;;9.25;5.38;;;15.20;39.80;;;;;;5137181;27;20031;-73
2021/04/28 10:42:30;;;;;;;9.38;5.65;;;15.10;36.80;;;;;;5136879;27;20039;-73
2021/04/28 10:44:57;;;;;;;9.68;5.82;;;15.30;37.80;;;;;;5136919;27;20059;-73
2021/04/28 10:47:29;;;;;;;9.82;5.35;;;15.30;38.10;;;;;;5135443;27;20119;-72
2021/04/28 10:50:05;;;;;;;8.80;5.85;;;15.30;37.00;;;;;;5136476;27;20083;-76
2021/04/28 10:52:40;;;;;;;11.30;5.13;;;15.30;36.80;;;;;;5136595;27;20043;-73
2021/04/28 10:55:27;;;;;;;8.20;5.70;;;15.30;35.00;;;;;;5136266;27;20410;-73
2021/04/28 10:57:52;;;;;;;8.48;5.45;;;15.30;34.40;;;;;;5136501;27;20035;-73
2021/04/28 11:00:24;;;;;;;7.60;5.32;;;15.30;34.80;;;;;;5136830;27;20538;-73
2021/04/28 11:02:50;;;;;;;5.95;5.18;;;15.30;35.90;;;;;;5136392;27;20035;-73
2021/04/28 11:05:27;;;;;;;8.07;5.72;;;15.50;34.90;;;;;;5136262;27;20463;-73
2021/04/28 11:08:00;;;;;;;7.80;5.43;;;15.50;34.40;;;;;;5136075;27;20039;-73
2021/04/28 11:10:35;;;;;;;8.20;6.10;;;15.40;33.70;;;;;;5136144;27;20043;-74
2021/04/28 11:13:07;;;;;;;11.13;5.93;;;15.40;33.60;;;;;;5135251;27;20043;-72
2021/04/28 11:15:54;;;;;;;7.60;5.82;;;15.50;34.20;;;;;;5134236;27;20091;-72
2021/04/28 11:18:37;;;;;;;8.20;5.22;;;15.50;34.30;;;;;;5135896;27;20061;-72
2021/04/28 11:21:18;;;;;;;7.55;5.85;;;15.50;34.80;;;;;;5134950;27;20398;-72
2021/04/28 11:24:10;;;;;;;8.13;5.88;;;15.40;33.10;;;;;;5136007;27;20038;-72
2021/04/28 11:26:39;;;;;;;6.43;5.60;;;15.30;33.40;;;;;;5135803;27;20027;-71
2021/04/28 11:29:07;;;;;;;9.73;6.35;;;15.40;34.20;;;;;;5135845;27;20031;-72
2021/04/28 11:31:41;;;;;;;7.35;5.65;;;15.60;35.90;;;;;;5135745;27;20043;-72
2021/04/28 11:34:34;;;;;;;9.32;5.53;;;15.50;36.40;;;;;;5136057;27;20047;-72
2021/04/28 11:37:09;;;;;;;11.50;7.25;;;15.50;36.30;;;;;;5135924;27;20087;-72
2021/04/28 11:39:46;;;;;;;7.32;5.90;;;15.40;36.50;;;;;;5135701;27;20122;-72
2021/04/28 11:42:20;;;;;;;9.82;6.90;;;15.50;36.60;;;;;;5134732;27;20039;-72
2021/04/28 11:44:54;;;;;;;16.80;8.45;;;15.70;35.40;;;;;;5135346;27;20078;-72
2021/04/28 11:47:22;;;;;;;9.23;6.47;;;15.50;35.10;;;;;;5135494;27;20043;-72
2021/04/28 11:49:50;;;;;;;9.75;6.80;;;15.50;34.90;;;;;;5135251;27;20110;-72
2021/04/28 11:52:17;;;;;;;9.63;5.53;;;15.50;34.70;;;;;;5135318;27;20074;-71
2021/04/28 11:54:43;;;;;;;8.48;6.13;;;15.60;35.40;;;;;;5135161;27;20471;-72
2021/04/28 11:57:10;;;;;;;8.00;6.38;;;15.70;35.00;;;;;;5135248;27;20035;-71
2021/04/28 11:59:37;;;;;;;8.40;6.57;;;15.80;34.20;;;;;;5135671;27;20364;-72
2021/04/28 12:02:06;;;;;;;11.68;7.13;;;15.70;33.90;;;;;;5135019;27;20053;-72
2021/04/28 12:04:33;;;;;;;9.65;6.57;;;15.90;33.90;;;;;;5134013;27;20395;-72
2021/04/28 12:07:00;;;;;;;9.27;6.43;;;16.10;33.80;;;;;;5134899;27;20174;-72
2021/04/28 12:09:49;;;;;;;9.18;6.18;;;16.20;34.40;;;;;;5135479;27;20383;-72
2021/04/28 12:12:28;;;;;;;7.00;5.82;;;16.10;33.00;;;;;;5135129;27;20039;-73
2021/04/28 12:14:53;;;;;;;7.85;6.40;;;16.00;33.70;;;;;;5134723;27;20085;-72
2021/04/28 12:17:28;;;;;;;9.48;6.45;;;16.00;34.10;;;;;;5134732;27;20486;-73
2021/04/28 12:19:55;;;;;;;11.05;6.47;;;16.20;34.40;;;;;;5135522;27;20110;-73
2021/04/28 12:22:23;;;;;;;9.70;7.13;;;15.90;35.90;;;;;;5135294;27;20035;-73
2021/04/28 12:24:52;;;;;;;10.18;6.95;;;16.00;35.60;;;;;;5135103;27;20118;-72
2021/04/28 12:27:18;;;;;;;9.98;7.05;;;16.10;36.10;;;;;;5134320;27;20034;-72
2021/04/28 12:29:50;;;;;;;8.40;6.45;;;16.00;37.00;;;;;;5134954;27;20055;-73
2021/04/28 12:32:17;;;;;;;9.48;7.55;;;16.00;36.60;;;;;;5134577;27;20490;-72
2021/04/28 12:34:45;;;;;;;12.80;7.78;;;16.00;36.60;;;;;;5134637;27;20039;-73
2021/04/28 12:37:17;;;;;;;11.27;7.03;;;16.10;35.90;;;;;;5134719;27;20038;-72
2021/04/28 12:39:58;;;;;;;10.57;7.22;;;16.30;36.60;;;;;;5134517;27;20399;-72
2021/04/28 12:42:31;;;;;;;10.07;7.00;;;16.20;36.30;;;;;;5116687;27;20500;-73
2021/04/28 12:44:59;;;;;;;9.57;7.03;;;16.00;36.70;;;;;;5134321;27;20039;-72
2021/04/28 12:47:27;;;;;;;10.20;7.15;;;16.10;35.60;;;;;;5134314;27;20065;-72
2021/04/28 12:50:02;;;;;;;10.82;7.85;;;16.00;36.40;;;;;;5134315;27;20041;-73
2021/04/28 12:52:36;;;;;;;9.88;6.40;;;15.80;37.30;;;;;;5134237;27;20364;-72
2021/04/28 12:55:29;;;;;;;11.52;7.57;;;16.10;37.20;;;;;;5134313;27;20043;-73